Time;durP1;ratioP1;P1;durP2;ratioP2;P2;SDS_P1;SDS_P2;PMS_P1;PMS_P2;Temp;Humidity;BMP_temperature;BMP_pressure;BME280_temperature;BME280_humidity;BME280_pressure;Samples;Min_cycle;Max_cycle;Signal;HPM_P1;HPM_P2
2021/07/24 00:01:30;;;;;;;2.07;1.87;;;;;;;19.29;60.15;98445.78;5073327;28;43144;-83
2021/07/24 00:03:58;;;;;;;3.40;2.07;;;;;;;19.25;60.03;98434.53;5073015;28;40385;-84
2021/07/24 00:06:27;;;;;;;3.17;1.93;;;;;;;19.20;60.38;98436.00;5090627;28;42104;-88
2021/07/24 00:08:55;;;;;;;4.50;2.00;;;;;;;19.07;60.35;98420.34;5072763;28;43093;-83
2021/07/24 00:11:22;;;;;;;2.23;2.10;;;;;;;19.11;60.16;98436.97;5089419;28;43216;-83
2021/07/24 00:13:51;;;;;;;2.17;1.60;;;;;;;19.08;60.24;98438.13;5072402;28;40548;-82
2021/07/24 00:16:19;;;;;;;2.30;1.70;;;;;;;18.94;60.08;98420.78;5072550;28;41311;-82
2021/07/24 00:18:46;;;;;;;1.93;1.80;;;;;;;19.02;60.44;98438.78;5072295;28;43908;-83
2021/07/24 00:21:14;;;;;;;2.20;1.93;;;;;;;18.67;60.53;98389.59;5073609;28;42539;-81
2021/07/24 00:23:41;;;;;;;3.27;1.80;;;;;;;18.94;60.26;98436.88;5072821;28;39815;-84
2021/07/24 00:26:12;;;;;;;2.20;2.00;;;;;;;18.89;60.36;98427.63;5056710;28;41937;-82
2021/07/24 00:28:40;;;;;;;2.43;1.60;;;;;;;18.89;60.16;98431.16;5072086;28;42150;-81
2021/07/24 00:31:09;;;;;;;2.23;1.60;;;;;;;18.70;60.35;98399.16;5072290;28;42607;-83
2021/07/24 00:33:42;;;;;;;3.07;1.90;;;;;;;18.77;60.24;98410.97;5071883;28;40122;-82
2021/07/24 00:36:10;;;;;;;2.90;1.97;;;;;;;18.70;60.62;98399.16;5052586;28;42018;-85
2021/07/24 00:38:39;;;;;;;3.30;2.00;;;;;;;18.63;60.85;98374.84;5070710;28;42204;-81
2021/07/24 00:41:13;;;;;;;2.43;1.80;;;;;;;18.79;61.04;98402.75;5072778;28;43226;-79
2021/07/24 00:43:42;;;;;;;2.00;1.73;;;;;;;18.71;60.63;98390.13;5076216;28;41612;-82
2021/07/24 00:46:12;;;;;;;1.97;1.57;;;;;;;18.77;60.72;98397.53;5072323;28;42697;-82
2021/07/24 00:48:42;;;;;;;2.43;1.97;;;;;;;18.76;61.00;98384.28;5072117;28;42929;-80
2021/07/24 00:51:31;;;;;;;2.93;2.07;;;;;;;18.74;61.03;98379.06;5055209;28;41753;-83
2021/07/24 00:54:02;;;;;;;2.00;1.57;;;;;;;18.67;60.82;98369.97;5055429;28;38848;-83
2021/07/24 00:56:30;;;;;;;2.27;1.70;;;;;;;18.72;60.88;98378.41;5072639;28;42684;-81
2021/07/24 00:58:58;;;;;;;1.30;1.17;;;;;;;18.70;60.73;98374.19;5071168;28;41927;-83
2021/07/24 01:01:27;;;;;;;1.70;1.60;;;;;;;18.68;60.67;98371.66;5054904;28;41261;-84
2021/07/24 01:03:55;;;;;;;2.33;2.10;;;;;;;18.64;60.48;98370.31;5072487;28;40054;-84
2021/07/24 01:06:25;;;;;;;2.37;1.47;;;;;;;18.59;60.54;98365.41;5054826;28;41751;-80
2021/07/24 01:08:54;;;;;;;1.63;1.53;;;;;;;18.55;60.43;98368.53;5055401;28;41787;-86
2021/07/24 01:11:21;;;;;;;2.30;1.47;;;;;;;18.37;60.21;98341.78;5071541;28;41210;-84
2021/07/24 01:13:51;;;;;;;1.90;1.33;;;;;;;18.40;60.49;98352.19;5071741;28;40672;-84
2021/07/24 01:16:18;;;;;;;1.93;1.67;;;;;;;18.41;60.59;98356.56;5071949;28;41767;-84
2021/07/24 01:18:48;;;;;;;5.03;2.40;;;;;;;18.36;61.09;98361.53;5088429;28;42811;-83
2021/07/24 01:21:28;;;;;;;2.77;1.73;;;;;;;18.31;61.53;98359.31;5056586;28;42520;-86
2021/07/24 01:23:58;;;;;;;2.60;1.87;;;;;;;18.27;61.44;98357.97;5054960;28;38978;-79
2021/07/24 01:26:35;;;;;;;2.77;2.00;;;;;;;18.21;61.75;98363.94;5072430;28;41804;-80
2021/07/24 01:29:04;;;;;;;2.33;2.10;;;;;;;18.22;61.82;98370.13;5054159;28;43054;-82
2021/07/24 01:31:33;;;;;;;3.17;2.13;;;;;;;18.20;62.02;98367.59;5072060;28;42331;-82
2021/07/24 01:34:02;;;;;;;2.67;2.03;;;;;;;18.20;62.51;98367.59;5071392;28;41982;-84
2021/07/24 01:36:32;;;;;;;2.57;1.80;;;;;;;18.10;62.59;98353.47;5054609;28;42036;-84
2021/07/24 01:39:00;;;;;;;1.50;1.40;;;;;;;18.08;62.60;98350.09;5054174;28;41991;-83
2021/07/24 01:41:29;;;;;;;3.33;2.03;;;;;;;18.18;62.52;98368.75;5072342;28;42559;-87
2021/07/24 01:43:58;;;;;;;4.47;2.67;;;;;;;18.05;62.63;98353.06;5071550;28;40913;-85
2021/07/24 01:46:26;;;;;;;3.40;2.17;;;;;;;18.17;62.78;98384.03;5054662;28;40502;-90
2021/07/24 01:52:46;;;;;;;2.40;2.20;;;;;;;18.09;62.96;98372.38;5070664;28;42173;-82
2021/07/24 01:55:05;;;;;;;2.80;1.60;;;;;;;18.14;62.59;98389.69;5038161;28;39786;-82
2021/07/24 01:57:42;;;;;;;2.33;2.03;;;;;;;18.12;62.42;98391.69;5053690;28;42022;-81
2021/07/24 02:00:12;;;;;;;3.33;1.83;;;;;;;18.11;62.68;98403.38;5061598;28;43168;-83
2021/07/24 02:03:01;;;;;;;3.40;2.40;;;;;;;18.03;62.41;98395.28;5058259;28;42125;-85
2021/07/24 02:05:50;;;;;;;3.10;2.20;;;;;;;18.08;62.34;98406.38;5074562;28;39020;-85
2021/07/24 02:08:25;;;;;;;3.37;1.97;;;;;;;18.06;62.67;98408.34;5092714;28;42036;-85
2021/07/24 02:10:54;;;;;;;2.57;1.73;;;;;;;18.05;63.03;98398.63;5074080;28;42840;-86
2021/07/24 02:13:23;;;;;;;2.60;1.77;;;;;;;18.03;62.72;98403.31;5074687;28;41591;-86
2021/07/24 02:15:52;;;;;;;3.57;2.40;;;;;;;18.01;62.75;98399.94;5056952;28;39276;-83
2021/07/24 02:18:21;;;;;;;2.00;1.80;;;;;;;17.98;62.80;98402.94;5057790;28;40506;-81
2021/07/24 02:20:58;;;;;;;1.93;1.43;;;;;;;17.98;62.98;98410.13;5056916;28;41843;-83
2021/07/24 02:23:27;;;;;;;2.70;1.83;;;;;;;17.94;62.81;98410.44;5057217;28;41697;-83
2021/07/24 02:25:55;;;;;;;3.23;2.47;;;;;;;17.84;62.93;98404.31;5074720;28;42512;-85
2021/07/24 02:28:23;;;;;;;2.40;1.93;;;;;;;17.90;63.11;98419.78;5057145;28;42015;-85
2021/07/24 02:30:52;;;;;;;1.63;1.47;;;;;;;17.76;62.92;98398.88;5055803;28;41939;-87
2021/07/24 02:33:20;;;;;;;3.70;2.37;;;;;;;17.84;63.16;98416.84;5091146;28;42385;-83
2021/07/24 02:35:49;;;;;;;2.10;1.50;;;;;;;17.77;63.04;98410.44;5074195;28;39882;-82
2021/07/24 02:38:21;;;;;;;2.33;1.50;;;;;;;17.79;62.83;98411.13;5054052;28;40944;-80
2021/07/24 02:40:50;;;;;;;2.20;1.87;;;;;;;17.77;63.16;98413.13;5054849;28;43012;-83
2021/07/24 02:43:18;;;;;;;1.60;1.50;;;;;;;17.74;63.41;98408.91;5054141;28;43274;-85
2021/07/24 02:45:46;;;;;;;1.93;1.73;;;;;;;17.66;63.10;98398.13;5037368;28;39279;-81
2021/07/24 02:48:14;;;;;;;2.10;1.50;;;;;;;17.70;63.28;98406.66;5056289;28;42073;-80
2021/07/24 02:50:50;;;;;;;2.27;2.07;;;;;;;17.68;63.89;98408.69;5057314;28;42838;-81
2021/07/24 02:53:17;;;;;;;2.17;1.63;;;;;;;17.58;64.37;98390.78;5056904;28;41283;-84
2021/07/24 02:55:46;;;;;;;3.67;2.80;;;;;;;17.64;65.74;98392.06;5057418;28;39094;-80
2021/07/24 02:58:15;;;;;;;2.27;2.07;;;;;;;17.65;65.66;98398.25;5057178;28;41735;-86
2021/07/24 03:00:44;;;;;;;3.93;2.33;;;;;;;17.62;66.77;98399.38;5056554;28;42098;-81
2021/07/24 03:03:12;;;;;;;4.10;2.40;;;;;;;17.53;66.71;98389.56;5092044;28;42390;-82
2021/07/24 03:05:39;;;;;;;2.93;1.83;;;;;;;17.53;67.40;98386.91;5073132;28;38939;-83
2021/07/24 03:08:07;;;;;;;3.27;2.50;;;;;;;17.48;66.99;98387.34;5073631;28;41849;-87
2021/07/24 03:10:34;;;;;;;2.13;1.93;;;;;;;17.57;66.69;98397.13;5056738;28;42638;-85
2021/07/24 03:13:02;;;;;;;2.70;1.93;;;;;;;17.55;66.44;98392.94;5056704;28;41137;-82
2021/07/24 03:15:31;;;;;;;4.57;3.00;;;;;;;17.57;66.95;98394.44;5057248;28;40114;-86
2021/07/24 03:17:58;;;;;;;3.03;2.50;;;;;;;17.46;67.57;98381.28;5092046;28;42023;-89
2021/07/24 03:20:26;;;;;;;2.93;2.00;;;;;;;17.56;66.71;98406.16;5073600;28;41701;-85
2021/07/24 03:22:55;;;;;;;2.93;1.83;;;;;;;17.55;66.71;98407.19;5091206;28;42379;-85
2021/07/24 03:25:23;;;;;;;2.43;1.80;;;;;;;17.56;66.58;98399.94;5073487;28;40089;-84
2021/07/24 03:27:50;;;;;;;3.77;2.80;;;;;;;17.53;66.55;98401.13;5091194;28;41878;-84
2021/07/24 03:30:18;;;;;;;3.00;2.10;;;;;;;17.40;66.18;98363.16;5056102;28;42685;-81
2021/07/24 03:32:47;;;;;;;2.53;2.30;;;;;;;17.51;66.56;98380.84;5072046;28;41603;-85
2021/07/24 03:35:14;;;;;;;2.40;2.20;;;;;;;17.51;67.07;98370.13;5072925;28;39663;-83
2021/07/24 03:37:42;;;;;;;2.97;2.17;;;;;;;17.51;67.98;98364.78;5066118;28;40750;-86
2021/07/24 03:40:11;;;;;;;3.63;2.77;;;;;;;17.40;68.13;98352.47;5111805;28;43518;-82
2021/07/24 03:42:39;;;;;;;3.23;2.50;;;;;;;17.51;68.53;98365.63;5101815;28;42557;-85
2021/07/24 03:45:07;;;;;;;4.13;2.40;;;;;;;17.47;69.00;98356.19;5073265;28;40187;-86
2021/07/24 03:47:35;;;;;;;2.13;1.87;;;;;;;17.41;68.39;98338.09;5073552;28;41756;-87
2021/07/24 03:50:04;;;;;;;4.50;2.40;;;;;;;17.48;68.25;98346.34;5073089;28;43357;-82
2021/07/24 03:52:32;;;;;;;2.70;2.00;;;;;;;17.52;67.78;98342.38;5070664;28;41697;-87
2021/07/24 03:54:59;;;;;;;3.50;2.60;;;;;;;17.57;67.70;98348.09;5087697;28;40671;-81
2021/07/24 03:57:27;;;;;;;3.53;2.40;;;;;;;17.63;67.91;98357.38;5072968;28;40983;-88
2021/07/24 03:59:54;;;;;;;5.17;2.67;;;;;;;17.65;67.84;98356.25;5056019;28;42028;-83
2021/07/24 04:02:24;;;;;;;2.83;2.40;;;;;;;17.68;68.07;98366.63;5055542;28;41524;-87
2021/07/24 04:04:52;;;;;;;2.43;2.23;;;;;;;17.56;67.66;98341.91;5055931;28;40120;-83
2021/07/24 04:07:22;;;;;;;4.57;2.30;;;;;;;17.73;67.18;98360.84;5056401;28;41743;-86
2021/07/24 04:09:53;;;;;;;2.60;1.67;;;;;;;17.77;66.78;98362.22;5069750;28;42180;-84
2021/07/24 04:12:20;;;;;;;3.97;2.20;;;;;;;17.76;66.78;98374.78;5055738;28;41394;-88
2021/07/24 04:14:48;;;;;;;1.93;1.70;;;;;;;17.81;66.72;98377.81;5069427;28;38827;-82
2021/07/24 04:17:16;;;;;;;2.47;2.17;;;;;;;17.73;66.62;98347.44;5089191;28;41135;-84
2021/07/24 04:19:43;;;;;;;2.33;1.83;;;;;;;17.84;66.69;98365.97;5090405;28;43044;-84
2021/07/24 04:22:11;;;;;;;2.87;2.30;;;;;;;17.70;65.96;98331.69;5054117;28;41550;-85
2021/07/24 04:24:40;;;;;;;2.53;2.20;;;;;;;17.94;66.16;98377.44;5054347;28;39273;-86
2021/07/24 04:27:08;;;;;;;1.83;1.53;;;;;;;17.96;65.78;98375.44;5082487;28;42460;-82
2021/07/24 04:29:36;;;;;;;3.93;2.20;;;;;;;18.00;65.99;98368.78;5068495;28;43060;-85
2021/07/24 04:32:04;;;;;;;2.80;2.20;;;;;;;17.74;65.75;98322.34;5064495;28;42574;-86
2021/07/24 04:34:31;;;;;;;2.37;1.80;;;;;;;17.99;65.84;98369.78;5054411;28;40343;-86
2021/07/24 04:36:59;;;;;;;3.13;1.90;;;;;;;17.97;65.79;98365.56;5052726;28;42065;-82
2021/07/24 04:39:26;;;;;;;2.30;1.90;;;;;;;17.98;65.72;98368.09;5052328;28;42009;-88
2021/07/24 04:41:55;;;;;;;3.83;2.40;;;;;;;17.94;65.34;98361.34;5053029;28;42371;-83
2021/07/24 04:44:23;;;;;;;3.47;2.37;;;;;;;18.01;65.37;98373.16;5053830;28;39215;-86
2021/07/24 04:46:50;;;;;;;2.30;2.10;;;;;;;18.06;65.21;98376.19;5050852;28;41593;-81
2021/07/24 04:49:18;;;;;;;1.90;1.80;;;;;;;18.10;65.38;98374.91;5051677;28;42879;-86
2021/07/24 04:51:46;;;;;;;2.77;2.00;;;;;;;18.15;65.35;98375.28;5060943;28;42131;-84
2021/07/24 04:54:14;;;;;;;1.90;1.33;;;;;;;18.13;65.00;98361.19;5067868;28;40902;-89
2021/07/24 04:56:42;;;;;;;2.30;2.10;;;;;;;18.33;65.36;98371.72;5050053;28;41156;-84
2021/07/24 04:59:11;;;;;;;3.33;2.40;;;;;;;18.43;65.45;98372.47;5054386;28;41781;-86
2021/07/24 05:01:38;;;;;;;2.73;2.33;;;;;;;18.58;66.28;98373.59;5054586;28;41171;-84
2021/07/24 05:04:06;;;;;;;2.57;2.17;;;;;;;18.66;65.94;98357.59;5052876;28;38819;-86
2021/07/24 05:06:33;;;;;;;3.30;2.30;;;;;;;18.89;65.81;98369.44;5054723;28;40801;-84
2021/07/24 05:09:01;;;;;;;3.87;3.10;;;;;;;19.21;65.75;98386.69;5060267;28;42157;-83
2021/07/24 05:11:28;;;;;;;3.17;2.33;;;;;;;19.35;64.93;98380.69;5080122;28;42070;-88
2021/07/24 05:13:56;;;;;;;3.33;2.43;;;;;;;19.71;64.56;98398.28;5052357;28;38963;-85
2021/07/24 05:16:24;;;;;;;2.43;2.23;;;;;;;19.96;63.96;98398.34;5054164;28;41904;-84
2021/07/24 05:18:52;;;;;;;3.57;2.50;;;;;;;20.22;63.69;98417.84;5065932;28;42650;-84
2021/07/24 05:21:19;;;;;;;2.67;2.20;;;;;;;20.42;62.86;98424.59;5068974;28;42292;-84
2021/07/24 05:23:47;;;;;;;3.27;2.70;;;;;;;20.61;62.68;98449.47;5084540;28;38828;-85
2021/07/24 05:26:15;;;;;;;3.27;2.50;;;;;;;20.74;62.30;98452.50;5085892;28;41976;-88
2021/07/24 05:28:43;;;;;;;4.10;3.10;;;;;;;20.75;62.35;98446.13;5049782;28;41605;-79
2021/07/24 05:31:18;;;;;;;2.50;2.03;;;;;;;20.78;61.93;98426.91;5069161;28;41205;-84
2021/07/24 05:33:47;;;;;;;3.10;2.33;;;;;;;20.98;61.83;98460.53;5053208;28;39304;-78
2021/07/24 05:36:14;;;;;;;3.43;2.30;;;;;;;21.02;61.50;98459.16;5054256;28;41041;-84
2021/07/24 05:38:42;;;;;;;3.23;2.40;;;;;;;20.98;61.21;98441.69;5053551;28;41699;-87
2021/07/24 05:41:09;;;;;;;5.33;3.37;;;;;;;21.09;61.07;98448.56;5054774;28;42459;-84
2021/07/24 05:43:37;;;;;;;3.53;2.60;;;;;;;21.03;60.97;98428.53;5070801;28;40839;-84
2021/07/24 05:46:04;;;;;;;3.10;2.10;;;;;;;21.19;60.77;98432.22;5071046;28;41732;-83
2021/07/24 05:48:32;;;;;;;3.00;2.67;;;;;;;21.42;60.60;98444.78;5052986;28;41969;-81
2021/07/24 05:51:07;;;;;;;3.93;2.67;;;;;;;21.61;60.35;98442.69;5070686;28;41153;-87
2021/07/24 05:53:34;;;;;;;4.80;2.70;;;;;;;21.80;60.04;98437.69;5069835;28;39754;-85
2021/07/24 05:56:02;;;;;;;3.70;2.87;;;;;;;21.99;59.85;98435.59;5070053;28;41081;-88
2021/07/24 05:58:30;;;;;;;2.77;2.50;;;;;;;22.10;59.24;98419.00;5087934;28;42836;-88
2021/07/24 06:00:58;;;;;;;3.50;2.83;;;;;;;22.41;59.03;98435.09;5050121;28;41360;-85
2021/07/24 06:03:25;;;;;;;3.43;2.53;;;;;;;22.61;58.94;98436.31;5050971;28;38907;-81
2021/07/24 06:05:53;;;;;;;3.50;3.00;;;;;;;22.78;58.52;98437.00;5033936;28;42064;-85
2021/07/24 06:08:22;;;;;;;3.47;2.60;;;;;;;22.91;58.52;98429.13;5050975;28;41915;-80
2021/07/24 06:10:50;;;;;;;4.03;3.23;;;;;;;22.95;58.08;98422.31;5069075;28;42214;-84
2021/07/24 06:13:21;;;;;;;4.83;2.73;;;;;;;23.02;58.03;98423.25;5070332;28;40276;-82
2021/07/24 06:15:48;;;;;;;4.17;2.67;;;;;;;23.01;57.91;98434.25;5088830;28;41897;-81
2021/07/24 06:18:16;;;;;;;2.67;2.27;;;;;;;22.91;57.63;98421.84;5083653;28;42944;-82
2021/07/24 06:20:44;;;;;;;3.77;2.63;;;;;;;22.88;58.06;98413.28;5060071;28;41605;-87
2021/07/24 06:23:12;;;;;;;3.27;2.63;;;;;;;22.82;58.10;98417.56;5072107;28;40773;-85
2021/07/24 06:25:41;;;;;;;2.60;2.40;;;;;;;22.73;58.09;98404.31;5060303;28;41095;-80
2021/07/24 06:28:09;;;;;;;2.80;2.40;;;;;;;22.75;58.18;98413.06;5048184;28;42833;-78
2021/07/24 06:30:37;;;;;;;7.87;3.17;;;;;;;22.82;58.09;98411.31;5065721;28;41779;-82
2021/07/24 06:33:05;;;;;;;3.33;2.43;;;;;;;22.89;58.13;98393.34;5085676;28;40916;-88
2021/07/24 06:35:33;;;;;;;4.17;2.97;;;;;;;22.89;57.77;98374.44;5071401;28;40745;-89
2021/07/24 06:38:01;;;;;;;3.50;3.20;;;;;;;23.09;57.29;98375.59;5055976;28;42748;-84
2021/07/24 06:40:28;;;;;;;2.90;2.43;;;;;;;23.30;57.24;98380.22;5088671;28;42376;-86
2021/07/24 06:42:58;;;;;;;3.87;2.60;;;;;;;23.57;57.33;98386.81;5060590;28;39938;-86
2021/07/24 06:45:26;;;;;;;3.97;2.80;;;;;;;23.85;57.69;98382.38;5080525;28;41852;-85
2021/07/24 06:47:54;;;;;;;4.20;2.90;;;;;;;24.18;56.65;98387.28;5088787;28;41737;-82
2021/07/24 06:50:23;;;;;;;3.50;2.60;;;;;;;24.38;56.12;98365.81;5090154;28;42403;-85
2021/07/24 06:52:52;;;;;;;3.27;2.77;;;;;;;24.94;54.87;98408.16;5073486;28;40145;-86
2021/07/24 06:55:20;;;;;;;3.70;2.90;;;;;;;25.41;53.64;98434.50;5082142;28;42747;-86
2021/07/24 06:57:48;;;;;;;4.33;3.00;;;;;;;25.71;51.82;98451.38;5059595;28;41679;-83
2021/07/24 07:00:17;;;;;;;3.27;2.97;;;;;;;25.82;51.04;98460.81;5066100;28;41577;-78
2021/07/24 07:02:45;;;;;;;3.40;2.80;;;;;;;25.89;51.06;98431.81;5064493;28;39325;-80
2021/07/24 07:05:13;;;;;;;3.43;2.43;;;;;;;26.27;51.17;98434.00;5077564;28;41434;-79
2021/07/24 07:07:40;;;;;;;4.17;2.93;;;;;;;26.49;51.13;98432.81;5087855;28;43441;-80
2021/07/24 07:10:09;;;;;;;4.70;3.20;;;;;;;26.68;50.20;98423.84;5074027;28;41366;-80
2021/07/24 07:12:36;;;;;;;4.00;2.63;;;;;;;26.94;49.49;98424.91;5077802;28;40379;-78
2021/07/24 07:15:08;;;;;;;3.70;3.33;;;;;;;27.00;48.69;98434.94;5059404;28;40893;-80
2021/07/24 07:17:37;;;;;;;3.27;2.80;;;;;;;27.13;48.98;98462.09;5063763;28;41845;-81
2021/07/24 07:20:07;;;;;;;4.17;3.30;;;;;;;27.07;48.30;98449.34;5073340;28;41474;-77
2021/07/24 07:22:35;;;;;;;3.07;2.47;;;;;;;27.02;48.37;98455.41;5094404;28;40096;-79
2021/07/24 07:25:04;;;;;;;4.20;2.87;;;;;;;26.87;48.29;98462.91;5100682;28;43195;-78
2021/07/24 07:27:31;;;;;;;4.03;2.80;;;;;;;26.74;49.27;98446.63;5063287;28;42674;-78
2021/07/24 07:29:59;;;;;;;3.23;2.83;;;;;;;26.38;48.97;98404.41;5058152;28;41645;-79
2021/07/24 07:32:27;;;;;;;3.60;3.20;;;;;;;26.48;49.29;98436.56;5090426;28;40651;-82
2021/07/24 07:34:55;;;;;;;2.90;2.33;;;;;;;26.29;50.17;98421.09;5054790;28;41991;-80
2021/07/24 07:37:23;;;;;;;2.70;2.43;;;;;;;26.31;49.92;98436.16;5050702;28;41883;-81
2021/07/24 07:39:52;;;;;;;2.83;2.57;;;;;;;26.21;50.45;98424.00;5065013;28;42394;-82
2021/07/24 07:42:19;;;;;;;3.23;2.87;;;;;;;26.17;50.51;98422.72;5069558;28;38998;-89
2021/07/24 07:44:47;;;;;;;2.63;2.30;;;;;;;26.26;50.41;98429.63;5053550;28;41795;-85
2021/07/24 07:47:15;;;;;;;3.77;2.97;;;;;;;26.34;49.70;98434.88;5085357;28;42987;-84
2021/07/24 07:49:42;;;;;;;3.43;2.23;;;;;;;26.31;49.54;98419.84;5064755;28;42888;-84
2021/07/24 07:52:11;;;;;;;2.53;2.33;;;;;;;26.60;49.61;98448.47;5059911;28;40890;-89
2021/07/24 07:54:39;;;;;;;3.17;2.17;;;;;;;26.69;49.18;98432.84;5076731;28;42838;-83
2021/07/24 07:57:06;;;;;;;4.67;2.80;;;;;;;26.83;48.30;98443.47;5059425;28;43103;-87
2021/07/24 07:59:34;;;;;;;3.73;3.23;;;;;;;26.95;48.44;98438.28;5053565;28;41958;-86
2021/07/24 08:02:07;;;;;;;2.67;2.47;;;;;;;27.05;47.68;98446.84;5069807;28;38588;-85
2021/07/24 08:04:35;;;;;;;3.47;2.87;;;;;;;27.24;47.74;98442.41;5064580;28;40712;-86
2021/07/24 08:07:03;;;;;;;3.43;2.93;;;;;;;27.64;47.48;98447.78;5082593;28;43303;-87
2021/07/24 08:09:32;;;;;;;2.97;2.17;;;;;;;27.88;47.10;98447.88;5071710;28;42313;-78
2021/07/24 08:11:59;;;;;;;3.27;2.53;;;;;;;28.15;46.82;98445.88;5065673;28;40870;-82
2021/07/24 08:14:27;;;;;;;2.13;1.83;;;;;;;28.22;46.16;98446.69;5063352;28;41865;-84
2021/07/24 08:16:55;;;;;;;4.63;3.00;;;;;;;28.22;46.26;98468.47;5037191;28;41889;-84
2021/07/24 08:19:23;;;;;;;3.73;3.20;;;;;;;28.03;46.32;98454.94;5069626;28;41302;-88
2021/07/24 08:21:50;;;;;;;4.47;3.13;;;;;;;27.83;46.65;98442.25;5090428;28;40907;-84
2021/07/24 08:24:18;;;;;;;3.50;2.73;;;;;;;27.45;46.70;98412.22;5080267;28;41688;-79
2021/07/24 08:26:47;;;;;;;3.57;2.97;;;;;;;27.64;47.06;98450.50;5097864;28;43923;-82
2021/07/24 08:29:14;;;;;;;3.67;3.03;;;;;;;27.61;47.39;98431.88;5057192;28;43549;-86
2021/07/24 08:31:42;;;;;;;4.07;2.90;;;;;;;27.76;47.00;98452.34;5054365;28;39485;-83
2021/07/24 08:34:10;;;;;;;4.07;2.70;;;;;;;27.84;46.69;98427.59;5036651;28;41023;-89
2021/07/24 08:36:38;;;;;;;3.23;2.87;;;;;;;28.45;45.87;98451.56;5061066;28;42732;-86
2021/07/24 08:39:06;;;;;;;3.03;2.60;;;;;;;28.74;45.25;98433.75;5071790;28;41375;-85
2021/07/24 08:41:34;;;;;;;3.00;2.70;;;;;;;29.19;43.92;98447.19;5041864;28;40352;-82
2021/07/24 08:44:04;;;;;;;3.10;2.40;;;;;;;29.98;43.45;98444.47;5055091;28;40653;-85
2021/07/24 08:46:35;;;;;;;3.67;3.07;;;;;;;31.50;40.85;98444.78;5055497;28;42863;-81
2021/07/24 08:49:02;;;;;;;3.20;2.73;;;;;;;32.33;38.83;98463.53;5072469;28;43093;-85
2021/07/24 08:51:32;;;;;;;3.27;2.90;;;;;;;32.26;38.28;98460.13;5056028;28;39375;-82
2021/07/24 08:54:00;;;;;;;3.97;3.43;;;;;;;32.28;39.01;98446.97;5032676;28;40833;-85
2021/07/24 08:56:33;;;;;;;3.50;2.80;;;;;;;31.93;38.43;98425.16;5090174;28;42924;-83
2021/07/24 08:59:05;;;;;;;3.23;2.93;;;;;;;32.03;38.82;98454.66;5055451;28;41390;-86
2021/07/24 09:01:36;;;;;;;3.57;3.23;;;;;;;32.03;38.53;98443.69;5073596;28;41140;-82
2021/07/24 09:04:05;;;;;;;3.60;2.67;;;;;;;31.95;39.30;98455.88;5073859;28;40705;-88
2021/07/24 09:06:34;;;;;;;3.50;2.80;;;;;;;31.77;39.38;98440.44;5088016;28;41934;-82
2021/07/24 09:09:01;;;;;;;3.80;2.57;;;;;;;31.68;40.41;98436.44;5052998;28;41566;-84
2021/07/24 09:11:29;;;;;;;2.77;2.57;;;;;;;31.58;40.40;98447.16;5091691;28;39824;-80
2021/07/24 09:13:57;;;;;;;3.00;2.73;;;;;;;31.32;40.08;98442.16;5056471;28;41030;-87
2021/07/24 09:16:28;;;;;;;2.97;2.67;;;;;;;31.07;40.14;98437.75;5073279;28;41685;-85
2021/07/24 09:18:59;;;;;;;3.13;2.67;;;;;;;31.01;40.28;98411.38;5056920;28;43066;-84
2021/07/24 09:21:27;;;;;;;2.90;2.47;;;;;;;31.52;39.15;98448.13;5092302;28;40710;-85
2021/07/24 09:23:54;;;;;;;4.67;3.83;;;;;;;31.96;38.90;98443.03;5073688;28;41808;-83
2021/07/24 09:26:33;;;;;;;3.67;3.20;;;;;;;32.59;38.32;98442.06;5073101;28;42187;-84
2021/07/24 09:29:12;;;;;;;5.27;3.63;;;;;;;33.01;37.86;98437.84;5055446;28;42437;-87
2021/07/24 09:31:42;;;;;;;3.77;3.37;;;;;;;33.24;37.63;98438.78;5039206;28;39314;-85
2021/07/24 09:34:11;;;;;;;3.27;3.00;;;;;;;33.38;37.21;98434.59;5071556;28;41194;-84
2021/07/24 09:36:39;;;;;;;3.10;2.80;;;;;;;33.54;37.42;98417.22;5036261;28;42907;-85
2021/07/24 09:39:11;;;;;;;3.57;3.27;;;;;;;33.63;36.91;98437.66;5035916;28;41418;-85
2021/07/24 09:41:41;;;;;;;2.77;2.53;;;;;;;33.50;37.06;98438.06;5042919;28;40085;-83
2021/07/24 09:44:09;;;;;;;3.30;2.87;;;;;;;33.32;36.73;98436.44;5034308;28;41602;-85
2021/07/24 09:46:37;;;;;;;2.97;2.47;;;;;;;33.10;36.57;98422.63;5044347;28;41691;-89
2021/07/24 09:49:16;;;;;;;3.90;3.00;;;;;;;32.96;37.79;98435.03;5046839;28;42083;-87
2021/07/24 09:51:46;;;;;;;3.33;2.90;;;;;;;32.79;37.60;98439.69;5071167;28;41309;-83
2021/07/24 09:54:28;;;;;;;3.50;2.80;;;;;;;32.66;38.02;98438.06;5054569;28;41012;-85
2021/07/24 09:56:56;;;;;;;3.47;3.13;;;;;;;32.32;38.30;98426.22;5071340;28;43773;-86
2021/07/24 09:59:25;;;;;;;3.00;2.70;;;;;;;31.86;39.25;98396.28;5073710;28;42503;-82
2021/07/24 10:01:55;;;;;;;3.07;2.40;;;;;;;31.70;39.49;98425.25;5069243;28;41035;-84
2021/07/24 10:04:31;;;;;;;3.73;3.10;;;;;;;31.41;40.12;98416.94;5066449;28;41134;-85
2021/07/24 10:07:00;;;;;;;2.23;2.03;;;;;;;31.36;40.35;98416.00;5068630;28;45220;-84
2021/07/24 10:09:29;;;;;;;3.20;2.43;;;;;;;31.16;40.66;98415.56;5073453;28;42162;-82
2021/07/24 10:11:58;;;;;;;2.30;2.10;;;;;;;30.98;40.43;98422.78;5091332;28;40760;-81
2021/07/24 10:14:26;;;;;;;2.60;2.40;;;;;;;30.81;41.06;98413.59;5073744;28;41000;-84
2021/07/24 10:16:57;;;;;;;2.83;2.53;;;;;;;30.63;41.30;98400.03;5074476;28;42830;-85
2021/07/24 10:19:27;;;;;;;2.03;1.83;;;;;;;30.68;41.05;98422.00;5074911;28;42112;-85
2021/07/24 10:21:56;;;;;;;2.90;2.20;;;;;;;30.65;41.44;98393.28;5055163;28;39004;-81
2021/07/24 10:24:24;;;;;;;1.77;1.63;;;;;;;30.72;42.17;98346.66;5058942;28;40943;-86
2021/07/24 10:27:01;;;;;;;3.13;2.77;;;;;;;30.78;42.09;98328.50;5036580;28;42064;-84
2021/07/24 10:29:33;;;;;;;2.53;2.17;;;;;;;30.64;43.28;98311.50;5072361;28;42441;-85
2021/07/24 10:32:05;;;;;;;2.53;2.00;;;;;;;30.62;43.43;98321.84;5078194;28;40292;-81
2021/07/24 10:34:37;;;;;;;1.87;1.77;;;;;;;30.56;44.13;98317.31;5041447;28;40827;-84
2021/07/24 10:37:33;;;;;;;3.17;2.37;;;;;;;30.41;43.88;98308.72;5037149;28;43143;-80
2021/07/24 10:40:35;;;;;;;2.77;2.03;;;;;;;30.29;44.73;98308.72;5075148;28;42309;-82
2021/07/24 10:43:06;;;;;;;4.23;2.70;;;;;;;30.08;43.44;98325.63;5090258;28;41253;-80
2021/07/24 10:45:55;;;;;;;2.67;2.43;;;;;;;30.08;44.46;98325.63;5057633;28;40914;-84
2021/07/24 10:48:24;;;;;;;3.03;2.63;;;;;;;30.17;45.78;98313.28;5082945;28;41907;-87
2021/07/24 10:51:16;;;;;;;2.83;2.30;;;;;;;30.49;45.50;98316.56;5056802;28;42774;-81
2021/07/24 10:54:07;;;;;;;2.43;2.23;;;;;;;30.93;42.43;98353.44;5074713;28;40218;-84
2021/07/24 10:56:39;;;;;;;3.63;2.20;;;;;;;31.20;42.23;98345.59;5073538;28;41176;-84
2021/07/24 10:59:23;;;;;;;2.40;2.03;;;;;;;31.60;40.68;98367.50;5057221;28;41759;-82
2021/07/24 11:01:52;;;;;;;2.43;2.23;;;;;;;31.89;39.81;98341.00;5073005;28;41683;-86
2021/07/24 11:04:39;;;;;;;2.47;2.13;;;;;;;32.60;39.36;98345.00;5073684;28;39845;-83
2021/07/24 11:07:46;;;;;;;2.63;2.43;;;;;;;33.77;37.18;98364.81;5056400;28;41314;-83
2021/07/24 11:10:15;;;;;;;2.47;2.27;;;;;;;34.93;36.09;98342.28;5091791;28;43678;-85
2021/07/24 11:12:43;;;;;;;2.40;2.20;;;;;;;35.74;34.51;98350.97;5073119;28;42485;-82
2021/07/24 11:15:12;;;;;;;2.60;2.40;;;;;;;35.51;33.71;98315.59;5073106;28;40061;-85
2021/07/24 11:17:39;;;;;;;2.30;2.07;;;;;;;36.08;33.61;98339.50;5067539;28;41131;-85
2021/07/24 11:20:34;;;;;;;2.30;2.00;;;;;;;36.55;31.62;98339.28;5056047;28;43314;-82
2021/07/24 11:23:06;;;;;;;2.30;2.10;;;;;;;37.14;31.69;98369.84;5059601;28;42147;-85
2021/07/24 11:25:36;;;;;;;2.30;2.10;;;;;;;37.60;30.90;98353.13;5051706;28;38923;-81
2021/07/24 11:28:04;;;;;;;2.73;2.07;;;;;;;37.55;30.87;98359.53;5053929;28;42600;-86
2021/07/24 11:30:32;;;;;;;2.67;2.47;;;;;;;37.33;30.62;98370.94;5079111;28;43922;-85
2021/07/24 11:33:00;;;;;;;2.07;1.97;;;;;;;37.08;31.21;98367.38;5091229;28;43293;-81
2021/07/24 11:35:34;;;;;;;2.37;2.07;;;;;;;36.87;32.34;98358.28;5055821;28;39848;-84
2021/07/24 11:38:02;;;;;;;2.23;2.03;;;;;;;36.64;32.79;98341.19;5068389;28;41667;-79
2021/07/24 11:40:34;;;;;;;3.07;2.13;;;;;;;36.51;33.49;98327.13;5050729;28;42694;-81
2021/07/24 11:43:04;;;;;;;2.27;2.07;;;;;;;36.50;34.55;98336.50;5073250;28;41379;-84
2021/07/24 11:45:33;;;;;;;1.93;1.73;;;;;;;36.42;32.93;98348.09;5074330;28;40373;-82
2021/07/24 11:48:12;;;;;;;2.20;2.00;;;;;;;36.23;33.28;98347.78;5032122;28;40998;-86
2021/07/24 11:50:41;;;;;;;2.23;2.07;;;;;;;35.86;33.25;98335.00;5070418;28;41697;-84